Time,TemperatureF,DewpointF,PressureIn,WindDirection,WindDirectionDegrees,WindSpeedMPH,WindSpeedGustMPH,Humidity,HourlyPrecipIn,Conditions,Clouds,dailyrainin,SolarRadiationWatts/m^2,SoftwareType,DateUTC
2013-04-15 00:02:00,34.0,28.0,29.65,NNW,348,13.0,19.0,76,-99.99,,,-99.99,0.000000,,2013-04-15 07:02:00,
2013-04-15 00:41:00,34.0,28.0,29.66,NNW,342,13.0,18.0,78,-99.99,,,-99.99,0.000000,,2013-04-15 07:41:00,
2013-04-15 00:52:00,34.0,27.0,29.67,North,352,14.0,19.0,78,-99.99,,,-99.99,0.000000,,2013-04-15 07:52:00,
2013-04-15 01:02:00,34.0,27.0,29.68,North,1,11.0,18.0,77,-99.99,,,-99.99,0.000000,,2013-04-15 08:02:00,
2013-04-15 01:12:00,34.0,27.0,29.69,NNE,14,6.0,12.0,76,-99.99,,,-99.99,1.000000,,2013-04-15 08:12:00,
2013-04-15 01:22:00,34.0,27.0,29.69,NNE,14,6.0,12.0,76,-99.99,,,-99.99,1.000000,,2013-04-15 08:22:00,
2013-04-15 01:33:00,35.0,28.0,29.70,NNW,341,5.0,11.0,73,-99.99,,,-99.99,1.000000,,2013-04-15 08:33:00,
2013-04-15 01:42:00,36.0,28.0,29.71,North,354,6.0,13.0,71,-99.99,,,-99.99,0.000000,,2013-04-15 08:42:00,
2013-04-15 01:52:00,36.0,28.0,29.71,NW,310,4.0,8.0,72,-99.99,,,-99.99,0.000000,,2013-04-15 08:52:00,
2013-04-15 02:02:00,34.0,28.0,29.71,WNW,296,7.0,11.0,78,-99.99,,,-99.99,0.000000,,2013-04-15 09:02:00,
2013-04-15 02:12:00,34.0,29.0,29.71,NNW,333,7.0,10.0,81,-99.99,,,-99.99,0.000000,,2013-04-15 09:12:00,
2013-04-15 02:22:00,34.0,29.0,29.71,NNW,333,7.0,10.0,81,-99.99,,,-99.99,0.000000,,2013-04-15 09:22:00,
2013-04-15 02:32:00,34.0,29.0,29.71,NNW,341,5.0,8.0,82,-99.99,,,-99.99,0.000000,,2013-04-15 09:32:00,
2013-04-15 02:42:00,33.0,29.0,29.71,WNW,290,1.0,3.0,83,-99.99,,,-99.99,0.000000,,2013-04-15 09:42:00,
2013-04-15 02:52:00,33.0,29.0,29.71,West,280,0.0,2.0,83,-99.99,,,-99.99,0.000000,,2013-04-15 09:52:00,
2013-04-15 03:02:00,33.0,28.0,29.70,NW,315,3.0,4.0,83,-99.99,,,-99.99,0.000000,,2013-04-15 10:02:00,
2013-04-15 03:10:00,32.0,28.0,29.69,SE,136,5.0,7.0,84,-99.99,,,-99.99,0.000000,,2013-04-15 10:10:00,
2013-04-15 03:13:00,33.0,28.0,29.70,NW,326,3.0,4.0,84,-99.99,,,-99.99,0.000000,,2013-04-15 10:13:00,
2013-04-15 03:23:00,33.0,28.0,29.70,NW,326,3.0,4.0,84,-99.99,,,-99.99,0.000000,,2013-04-15 10:23:00,
2013-04-15 03:33:00,32.0,28.0,29.69,NE,54,3.0,4.0,85,-99.99,,,-99.99,0.000000,,2013-04-15 10:33:00,
2013-04-15 03:42:00,32.0,28.0,29.69,NE,54,3.0,4.0,85,-99.99,,,-99.99,0.000000,,2013-04-15 10:42:00,
2013-04-15 03:52:00,33.0,28.0,29.69,South,174,2.0,7.0,82,-99.99,,,-99.99,0.000000,,2013-04-15 10:52:00,
2013-04-15 04:03:00,32.0,28.0,29.69,SE,136,5.0,7.0,84,-99.99,,,-99.99,0.000000,,2013-04-15 11:03:00,
2013-04-15 04:52:00,37.0,25.0,29.69,ESE,119,2.0,4.0,61,-99.99,,,-99.99,0.000000,,2013-04-15 11:52:00,
2013-04-15 05:03:00,37.0,25.0,29.69,ESE,119,2.0,4.0,61,-99.99,,,-99.99,0.000000,,2013-04-15 12:03:00,
2013-04-15 05:13:00,38.0,25.0,29.69,South,186,3.0,6.0,59,-99.99,,,-99.99,0.000000,,2013-04-15 12:13:00,
2013-04-15 05:23:00,38.0,24.0,29.69,SW,215,3.0,6.0,58,-99.99,,,-99.99,0.000000,,2013-04-15 12:23:00,
2013-04-15 05:33:00,38.0,24.0,29.69,SW,228,1.0,4.0,58,-99.99,,,-99.99,0.000000,,2013-04-15 12:33:00,
2013-04-15 05:43:00,37.0,25.0,29.69,West,281,5.0,7.0,62,-99.99,,,-99.99,0.000000,,2013-04-15 12:43:00,
2013-04-15 05:52:00,37.0,25.0,29.69,West,281,5.0,7.0,62,-99.99,,,-99.99,0.000000,,2013-04-15 12:52:00,
2013-04-15 06:03:00,36.0,25.0,29.70,WNW,295,7.0,10.0,65,-99.99,,,-99.99,0.000000,,2013-04-15 13:03:00,
2013-04-15 06:12:00,35.0,27.0,29.70,WNW,292,3.0,6.0,71,-99.99,,,-99.99,0.000000,,2013-04-15 13:12:00,
2013-04-15 06:23:00,35.0,27.0,29.70,WNW,300,3.0,5.0,72,-99.99,,,-99.99,0.000000,,2013-04-15 13:23:00,
2013-04-15 06:33:00,35.0,27.0,29.70,NW,308,1.0,3.0,74,-99.99,,,-99.99,0.000000,,2013-04-15 13:33:00,
2013-04-15 06:42:00,35.0,28.0,29.70,NNE,12,2.0,3.0,74,-99.99,,,-99.99,5.000000,,2013-04-15 13:42:00,
2013-04-15 06:53:00,35.0,27.0,29.70,North,3,2.0,3.0,74,-99.99,,,-99.99,7.000000,,2013-04-15 13:53:00,
2013-04-15 07:04:00,35.0,27.0,29.70,NNW,341,3.0,5.0,74,-99.99,,,-99.99,7.000000,,2013-04-15 14:04:00,
2013-04-15 07:12:00,35.0,28.0,29.71,NW,308,4.0,5.0,76,-99.99,,,-99.99,7.000000,,2013-04-15 14:12:00,
2013-04-15 07:22:00,35.0,28.0,29.71,NW,308,4.0,5.0,76,-99.99,,,-99.99,7.000000,,2013-04-15 14:22:00,
2013-04-15 07:32:00,35.0,28.0,29.72,NW,306,4.0,6.0,77,-99.99,,,-99.99,7.000000,,2013-04-15 14:32:00,
2013-04-15 07:44:00,33.0,29.0,29.73,WNW,291,10.0,14.0,87,-99.99,,,-99.99,29.000000,,2013-04-15 14:44:00,
2013-04-15 08:03:00,32.0,29.0,29.73,North,354,12.0,16.0,89,-99.99,,,-99.99,46.000000,,2013-04-15 15:03:00,
2013-04-15 08:13:00,32.0,29.0,29.74,NNW,344,12.0,18.0,89,-99.99,,,-99.99,62.000000,,2013-04-15 15:13:00,
2013-04-15 08:23:00,32.0,29.0,29.74,NNW,344,12.0,18.0,89,-99.99,,,-99.99,62.000000,,2013-04-15 15:23:00,
2013-04-15 08:34:00,32.0,29.0,29.74,NNW,348,11.0,16.0,86,-99.99,,,-99.99,87.000000,,2013-04-15 15:34:00,
2013-04-15 08:43:00,33.0,26.0,29.75,North,355,10.0,14.0,74,-99.99,,,-99.99,111.000000,,2013-04-15 15:43:00,
2013-04-15 08:53:00,33.0,26.0,29.75,North,355,10.0,14.0,74,-99.99,,,-99.99,111.000000,,2013-04-15 15:53:00,
2013-04-15 09:04:00,34.0,24.0,29.75,North,354,10.0,15.0,65,-99.99,,,-99.99,154.000000,,2013-04-15 16:04:00,
2013-04-15 09:10:00,35.0,23.0,29.75,NNW,333,4.0,9.0,62,-99.99,,,-99.99,308.000000,,2013-04-15 16:10:00,
2013-04-15 09:13:00,34.0,24.0,29.75,NNW,334,7.0,12.0,65,-99.99,,,-99.99,166.000000,,2013-04-15 16:13:00,
2013-04-15 09:23:00,34.0,24.0,29.75,NNW,334,7.0,12.0,65,-99.99,,,-99.99,166.000000,,2013-04-15 16:23:00,
2013-04-15 09:33:00,35.0,24.0,29.75,NNW,348,7.0,11.0,64,-99.99,,,-99.99,180.000000,,2013-04-15 16:33:00,
2013-04-15 09:43:00,35.0,24.0,29.75,North,359,5.0,9.0,63,-99.99,,,-99.99,238.000000,,2013-04-15 16:43:00,
2013-04-15 09:53:00,35.0,24.0,29.75,North,359,5.0,9.0,63,-99.99,,,-99.99,238.000000,,2013-04-15 16:53:00,
2013-04-15 10:03:00,35.0,23.0,29.75,NNW,333,4.0,9.0,62,-99.99,,,-99.99,308.000000,,2013-04-15 17:03:00,
2013-04-15 10:43:00,38.0,21.0,29.74,NNW,342,5.0,10.0,50,-99.99,,,-99.99,506.000000,,2013-04-15 17:43:00,
2013-04-15 10:52:00,38.0,21.0,29.74,NNW,342,5.0,10.0,50,-99.99,,,-99.99,506.000000,,2013-04-15 17:52:00,
2013-04-15 11:02:00,38.0,21.0,29.74,NNW,328,4.0,10.0,51,-99.99,,,-99.99,393.000000,,2013-04-15 18:02:00,
2013-04-15 11:12:00,38.0,21.0,29.74,WNW,294,6.0,9.0,50,-99.99,,,-99.99,357.000000,,2013-04-15 18:12:00,
2013-04-15 11:23:00,38.0,21.0,29.74,WNW,294,6.0,9.0,50,-99.99,,,-99.99,357.000000,,2013-04-15 18:23:00,
2013-04-15 11:32:00,38.0,21.0,29.74,WNW,283,3.0,9.0,51,-99.99,,,-99.99,414.000000,,2013-04-15 18:32:00,
2013-04-15 11:40:00,41.0,22.0,29.73,WSW,250,6.0,22.0,47,-99.99,,,-99.99,673.000000,,2013-04-15 18:40:00,
2013-04-15 11:42:00,40.0,21.0,29.74,SSE,161,3.0,8.0,47,-99.99,,,-99.99,602.000000,,2013-04-15 18:42:00,
2013-04-15 11:52:00,40.0,21.0,29.74,SSE,161,3.0,8.0,47,-99.99,,,-99.99,602.000000,,2013-04-15 18:52:00,
2013-04-15 12:02:00,40.0,21.0,29.74,SW,218,3.0,8.0,47,-99.99,,,-99.99,427.000000,,2013-04-15 19:02:00,
2013-04-15 12:12:00,39.0,21.0,29.73,NW,308,3.0,9.0,48,-99.99,,,-99.99,529.000000,,2013-04-15 19:12:00,
2013-04-15 12:22:00,39.0,22.0,29.73,WSW,256,6.0,12.0,50,-99.99,,,-99.99,626.000000,,2013-04-15 19:22:00,
2013-04-15 12:35:00,41.0,22.0,29.73,WSW,250,6.0,22.0,47,-99.99,,,-99.99,673.000000,,2013-04-15 19:35:00,
2013-04-15 12:40:00,42.0,22.0,29.71,WNW,297,5.0,13.0,43,-99.99,,,-99.99,712.000000,,2013-04-15 19:40:00,
2013-04-15 13:10:00,43.0,21.0,29.70,WSW,254,4.0,8.0,42,-99.99,,,-99.99,607.000000,,2013-04-15 20:10:00,
2013-04-15 13:11:00,41.0,23.0,29.72,NW,315,10.0,16.0,47,-99.99,,,-99.99,800.000000,,2013-04-15 20:11:00,
2013-04-15 13:22:00,41.0,22.0,29.71,WNW,303,8.0,13.0,46,-99.99,,,-99.99,811.000000,,2013-04-15 20:22:00,
2013-04-15 13:32:00,42.0,22.0,29.71,WNW,297,5.0,13.0,43,-99.99,,,-99.99,712.000000,,2013-04-15 20:32:00,
2013-04-15 13:52:00,42.0,21.0,29.70,NW,304,6.0,10.0,43,-99.99,,,-99.99,670.000000,,2013-04-15 20:52:00,
2013-04-15 14:00:00,42.0,26.0,29.69,NNW,335,5.0,11.0,53,-99.99,,,-99.99,932.000000,,2013-04-15 21:00:00,
2013-04-15 14:02:00,43.0,21.0,29.70,WSW,254,4.0,8.0,42,-99.99,,,-99.99,607.000000,,2013-04-15 21:02:00,
2013-04-15 14:22:00,42.0,24.0,29.70,NW,325,6.0,11.0,48,-99.99,,,-99.99,342.000000,,2013-04-15 21:22:00,
2013-04-15 14:32:00,41.0,25.0,29.70,NNW,327,6.0,17.0,51,-99.99,,,-99.99,560.000000,,2013-04-15 21:32:00,
2013-04-15 14:42:00,42.0,26.0,29.70,NNW,329,9.0,14.0,53,-99.99,,,-99.99,549.000000,,2013-04-15 21:42:00,
2013-04-15 14:53:00,42.0,26.0,29.69,NNW,335,5.0,11.0,53,-99.99,,,-99.99,932.000000,,2013-04-15 21:53:00,
2013-04-15 15:42:00,41.0,27.0,29.69,NW,308,6.0,10.0,56,-99.99,,,-99.99,497.000000,,2013-04-15 22:42:00,
2013-04-15 15:52:00,42.0,28.0,29.69,West,280,3.0,9.0,57,-99.99,,,-99.99,661.000000,,2013-04-15 22:52:00,
2013-04-15 16:02:00,41.0,27.0,29.68,North,350,6.0,12.0,56,-99.99,,,-99.99,208.000000,,2013-04-15 23:02:00,
2013-04-15 16:12:00,42.0,27.0,29.67,North,2,5.0,9.0,55,-99.99,,,-99.99,457.000000,,2013-04-15 23:12:00,
2013-04-15 16:22:00,42.0,27.0,29.67,North,2,5.0,9.0,55,-99.99,,,-99.99,457.000000,,2013-04-15 23:22:00,
2013-04-15 16:30:00,43.0,24.0,29.63,NW,309,7.0,12.0,46,-99.99,,,-99.99,127.000000,,2013-04-15 23:30:00,
2013-04-15 16:32:00,43.0,27.0,29.66,North,4,6.0,11.0,52,-99.99,,,-99.99,760.000000,,2013-04-15 23:32:00,
2013-04-15 16:42:00,44.0,25.0,29.65,NNW,344,8.0,12.0,48,-99.99,,,-99.99,518.000000,,2013-04-15 23:42:00,
2013-04-15 16:52:00,44.0,25.0,29.65,WNW,292,7.0,11.0,48,-99.99,,,-99.99,408.000000,,2013-04-15 23:52:00,
2013-04-15 17:02:00,43.0,25.0,29.64,West,274,4.0,7.0,47,-99.99,,,-99.99,191.000000,,2013-04-16 00:02:00,
2013-04-15 17:12:00,43.0,25.0,29.64,West,274,4.0,7.0,47,-99.99,,,-99.99,191.000000,,2013-04-16 00:12:00,
2013-04-15 17:22:00,43.0,24.0,29.63,NW,309,7.0,12.0,46,-99.99,,,-99.99,127.000000,,2013-04-16 00:22:00,
2013-04-15 17:42:00,44.0,23.0,29.62,NW,323,10.0,14.0,43,-99.99,,,-99.99,165.000000,,2013-04-16 00:42:00,
2013-04-15 17:52:00,44.0,24.0,29.62,NNW,338,12.0,19.0,45,-99.99,,,-99.99,152.000000,,2013-04-16 00:52:00,
2013-04-15 18:00:00,41.0,20.0,29.62,NW,318,18.0,27.0,43,-99.99,,,-99.99,31.000000,,2013-04-16 01:00:00,
2013-04-15 18:02:00,44.0,24.0,29.62,NNW,342,16.0,22.0,46,-99.99,,,-99.99,153.000000,,2013-04-16 01:02:00,
2013-04-15 18:12:00,43.0,24.0,29.62,NW,326,13.0,20.0,46,-99.99,,,-99.99,85.000000,,2013-04-16 01:12:00,
2013-04-15 18:22:00,43.0,22.0,29.62,NNW,330,14.0,22.0,42,-99.99,,,-99.99,71.000000,,2013-04-16 01:22:00,
2013-04-15 18:32:00,43.0,23.0,29.62,NW,311,15.0,19.0,45,-99.99,,,-99.99,67.000000,,2013-04-16 01:32:00,
2013-04-15 18:42:00,41.0,20.0,29.62,NW,318,18.0,27.0,43,-99.99,,,-99.99,31.000000,,2013-04-16 01:42:00,
2013-04-15 18:52:00,41.0,20.0,29.62,NW,318,18.0,27.0,43,-99.99,,,-99.99,31.000000,,2013-04-16 01:52:00,
2013-04-15 19:32:00,36.0,26.0,29.67,NW,317,14.0,23.0,68,-99.99,,,-99.99,7.000000,,2013-04-16 02:32:00,
2013-04-15 19:42:00,34.0,28.0,29.67,WNW,303,13.0,20.0,78,-99.99,,,-99.99,7.000000,,2013-04-16 02:42:00,
2013-04-15 19:52:00,33.0,29.0,29.67,NW,322,11.0,22.0,82,-99.99,,,-99.99,7.000000,,2013-04-16 02:52:00,
2013-04-15 20:02:00,32.0,29.0,29.67,NW,314,10.0,14.0,90,-99.99,,,-99.99,2.000000,,2013-04-16 03:02:00,
2013-04-15 20:12:00,31.0,30.0,29.68,North,357,7.0,14.0,94,-99.99,,,-99.99,0.000000,,2013-04-16 03:12:00,
2013-04-15 20:22:00,31.0,30.0,29.69,North,349,6.0,9.0,95,-99.99,,,-99.99,0.000000,,2013-04-16 03:22:00,
2013-04-15 20:33:00,31.0,30.0,29.68,NNW,338,9.0,19.0,96,-99.99,,,-99.99,0.000000,,2013-04-16 03:33:00,
2013-04-15 20:43:00,30.0,29.0,29.69,North,354,10.0,15.0,97,-99.99,,,-99.99,0.000000,,2013-04-16 03:43:00,
2013-04-15 20:52:00,30.0,29.0,29.69,North,354,10.0,15.0,97,-99.99,,,-99.99,0.000000,,2013-04-16 03:52:00,
2013-04-15 21:02:00,30.0,29.0,29.70,North,357,10.0,15.0,98,-99.99,,,-99.99,2.000000,,2013-04-16 04:02:00,
2013-04-15 21:12:00,30.0,29.0,29.70,North,357,10.0,15.0,98,-99.99,,,-99.99,2.000000,,2013-04-16 04:12:00,
2013-04-15 21:23:00,30.0,29.0,29.69,North,357,9.0,13.0,98,-99.99,,,-99.99,0.000000,,2013-04-16 04:23:00,
2013-04-15 21:33:00,30.0,29.0,29.70,North,354,8.0,12.0,98,-99.99,,,-99.99,0.000000,,2013-04-16 04:33:00,
2013-04-15 21:42:00,30.0,29.0,29.70,NNE,13,9.0,13.0,98,-99.99,,,-99.99,1.000000,,2013-04-16 04:42:00,
2013-04-15 21:52:00,30.0,29.0,29.71,North,8,7.0,10.0,98,-99.99,,,-99.99,1.000000,,2013-04-16 04:52:00,
2013-04-15 22:02:00,30.0,29.0,29.70,NNW,337,10.0,15.0,98,-99.99,,,-99.99,0.000000,,2013-04-16 05:02:00,
2013-04-15 22:12:00,30.0,29.0,29.71,NNW,333,9.0,12.0,98,-99.99,,,-99.99,0.000000,,2013-04-16 05:12:00,
2013-04-15 22:22:00,30.0,29.0,29.70,NNW,342,8.0,11.0,98,-99.99,,,-99.99,0.000000,,2013-04-16 05:22:00,
2013-04-15 22:32:00,30.0,29.0,29.70,North,6,8.0,13.0,98,-99.99,,,-99.99,0.000000,,2013-04-16 05:32:00,
2013-04-15 22:40:00,29.0,29.0,29.70,NW,315,8.0,11.0,98,-99.99,,,-99.99,0.000000,,2013-04-16 05:40:00,
2013-04-15 22:42:00,30.0,29.0,29.71,North,349,6.0,10.0,98,-99.99,,,-99.99,0.000000,,2013-04-16 05:42:00,
2013-04-15 22:52:00,30.0,29.0,29.71,NNW,348,7.0,13.0,98,-99.99,,,-99.99,0.000000,,2013-04-16 05:52:00,
2013-04-15 23:02:00,30.0,29.0,29.70,NNW,340,8.0,11.0,98,-99.99,,,-99.99,0.000000,,2013-04-16 06:02:00,
2013-04-15 23:12:00,30.0,29.0,29.69,NW,318,9.0,11.0,98,-99.99,,,-99.99,0.000000,,2013-04-16 06:12:00,
2013-04-15 23:20:00,30.0,29.0,29.70,NNW,335,9.0,12.0,98,-99.99,,,-99.99,0.000000,,2013-04-16 06:20:00,
2013-04-15 23:22:00,29.0,29.0,29.69,NW,316,9.0,12.0,98,-99.99,,,-99.99,0.000000,,2013-04-16 06:22:00,
2013-04-15 23:32:00,29.0,29.0,29.70,NW,315,8.0,11.0,98,-99.99,,,-99.99,0.000000,,2013-04-16 06:32:00,
2013-04-15 23:52:00,29.0,29.0,29.70,NW,323,10.0,13.0,98,-99.99,,,-99.99,0.000000,,2013-04-16 06:52:00,